Waldron Lake, Indiana
Current Conditions -  °F | °C
As of 1:24 PM on Sunday 25 Jan 2015 (Local Time) from KGSH Reporting Station
Light Snow Light Snow  
Wind Chill: 19°   Ceiling: 1000
Heat Index: 30°   Visibility: 0.75mi
Dew Point: 27°   Wind: 16mph
Humidity: 88%   Direction: 80°E
Pressure: 29.77"   Gusts: NA
Location:  41.4818°N, 85.481°W
Report Text: KGSH 251824Z AUTO 08014KT 3/4SM -SN BR OVC010 M01/M03 A2977 RMK AO2 P0001 T10111028
Loading
Personal Weather Stations






























Interactive Weather Map New forecast layout! Learn more

10-Day Weather Forecast

Advertisements
Track Severe Weather on mobile